Time;durP1;ratioP1;P1;durP2;ratioP2;P2;SDS_P1;SDS_P2;PMS_P1;PMS_P2;Temp;Humidity;BMP_temperature;BMP_pressure;BME280_temperature;BME280_humidity;BME280_pressure;Samples;Min_cycle;Max_cycle;Signal;HPM_P1;HPM_P2
2023/07/08 00:01:05;;;;;;;8.87;7.13;;;;;;;;;;5037868;28;20565;-76
2023/07/08 00:03:31;;;;;;;8.03;7.17;;;;;;;;;;5040107;28;20598;-76
2023/07/08 00:05:57;;;;;;;8.40;7.50;;;;;;;;;;5034320;28;20328;-76
2023/07/08 00:08:23;;;;;;;7.67;6.87;;;;;;;;;;5035828;28;20270;-77
2023/07/08 00:10:50;;;;;;;9.60;7.90;;;;;;;;;;5029203;28;20174;-76
2023/07/08 00:13:16;;;;;;;8.00;7.10;;;;;;;;;;5032621;28;20200;-76
2023/07/08 00:15:42;;;;;;;8.23;7.37;;;;;;;;;;5032141;28;20233;-76
2023/07/08 00:18:16;;;;;;;10.27;7.50;;;;;;;;;;5029875;28;20659;-76
2023/07/08 00:20:44;;;;;;;8.63;7.07;;;;;;;;;;5029122;28;20655;-76
2023/07/08 00:23:11;;;;;;;7.90;7.10;;;;;;;;;;5037265;28;20830;-76
2023/07/08 00:25:37;;;;;;;9.17;7.40;;;;;;;;;;5033994;28;20275;-76
2023/07/08 00:28:08;;;;;;;8.67;7.40;;;;;;;;;;5031038;28;20179;-75
2023/07/08 00:30:34;;;;;;;8.10;7.27;;;;;;;;;;5037713;28;20244;-76
2023/07/08 00:33:01;;;;;;;8.30;7.00;;;;;;;;;;5037477;28;20231;-76
2023/07/08 00:35:27;;;;;;;6.87;6.17;;;;;;;;;;5041013;28;20209;-76
2023/07/08 00:37:53;;;;;;;9.43;7.40;;;;;;;;;;5030899;28;20190;-76
2023/07/08 00:40:25;;;;;;;8.50;6.77;;;;;;;;;;5047790;28;20652;-77
2023/07/08 00:42:51;;;;;;;8.37;7.23;;;;;;;;;;5017856;28;20285;-76
2023/07/08 00:45:25;;;;;;;7.70;6.27;;;;;;;;;;5039283;28;20166;-76
2023/07/08 00:47:52;;;;;;;7.93;6.90;;;;;;;;;;5051419;28;20213;-76
2023/07/08 00:50:18;;;;;;;8.50;7.60;;;;;;;;;;5025051;28;20273;-76
2023/07/08 00:52:46;;;;;;;8.37;6.50;;;;;;;;;;5029353;28;20594;-76
2023/07/08 00:55:12;;;;;;;8.50;7.07;;;;;;;;;;5040821;28;20269;-75
2023/07/08 00:57:41;;;;;;;9.43;7.27;;;;;;;;;;5034190;28;20179;-75
2023/07/08 01:00:15;;;;;;;7.80;6.67;;;;;;;;;;5024331;28;20195;-76
2023/07/08 01:02:46;;;;;;;7.57;6.73;;;;;;;;;;5033599;28;20213;-75
2023/07/08 01:05:16;;;;;;;9.20;6.80;;;;;;;;;;5037124;28;20183;-76
2023/07/08 01:07:44;;;;;;;7.17;6.17;;;;;;;;;;5042317;28;20180;-76
2023/07/08 01:10:13;;;;;;;7.50;6.70;;;;;;;;;;5054157;28;20174;-76
2023/07/08 01:12:43;;;;;;;7.50;6.30;;;;;;;;;;5025783;28;20274;-76
2023/07/08 01:15:10;;;;;;;8.60;6.40;;;;;;;;;;5041396;28;20182;-76
2023/07/08 01:17:37;;;;;;;7.13;6.43;;;;;;;;;;5043828;28;20174;-76
2023/07/08 01:20:05;;;;;;;7.57;6.70;;;;;;;;;;5046727;28;20186;-76
2023/07/08 01:22:32;;;;;;;7.83;6.60;;;;;;;;;;5032794;28;20179;-76
2023/07/08 01:25:03;;;;;;;8.43;6.83;;;;;;;;;;5043107;28;20185;-76
2023/07/08 01:27:32;;;;;;;6.80;5.90;;;;;;;;;;5051917;28;20651;-76
2023/07/08 01:30:01;;;;;;;7.47;6.67;;;;;;;;;;5033743;28;20175;-76
2023/07/08 01:32:28;;;;;;;7.33;6.30;;;;;;;;;;5033072;28;20249;-76
2023/07/08 01:35:00;;;;;;;6.90;6.10;;;;;;;;;;5032628;28;20681;-76
2023/07/08 01:37:59;;;;;;;7.67;6.73;;;;;;;;;;5037975;28;20189;-76
2023/07/08 01:40:45;;;;;;;7.93;6.80;;;;;;;;;;4967676;28;20241;-76
2023/07/08 01:43:11;;;;;;;7.17;6.33;;;;;;;;;;5042621;28;20226;-76
2023/07/08 01:45:40;;;;;;;7.57;5.97;;;;;;;;;;5033799;28;20187;-75
2023/07/08 01:48:08;;;;;;;8.33;6.97;;;;;;;;;;5045216;28;20214;-76
2023/07/08 01:50:49;;;;;;;7.33;6.63;;;;;;;;;;5033622;28;20240;-76
2023/07/08 01:53:19;;;;;;;7.57;6.40;;;;;;;;;;5032771;28;20684;-76
2023/07/08 01:55:45;;;;;;;7.60;6.60;;;;;;;;;;5033062;28;20206;-76
2023/07/08 01:58:11;;;;;;;7.20;6.10;;;;;;;;;;5032079;28;20531;-76
2023/07/08 02:00:37;;;;;;;9.33;6.20;;;;;;;;;;5032035;28;20715;-76
2023/07/08 02:03:03;;;;;;;8.03;5.70;;;;;;;;;;5042247;28;20209;-76
2023/07/08 02:05:29;;;;;;;8.02;7.22;;;;;;;;;;5032463;28;20919;-75
2023/07/08 02:07:56;;;;;;;7.90;6.87;;;;;;;;;;5040310;28;20202;-76
2023/07/08 02:10:22;;;;;;;8.67;6.50;;;;;;;;;;5039619;28;20199;-76
2023/07/08 02:12:48;;;;;;;6.70;5.93;;;;;;;;;;5032854;28;20252;-76
2023/07/08 02:15:14;;;;;;;7.27;6.57;;;;;;;;;;5050617;28;20642;-76
2023/07/08 02:17:40;;;;;;;6.73;5.63;;;;;;;;;;5044197;28;20182;-76
2023/07/08 02:20:08;;;;;;;9.33;6.67;;;;;;;;;;5031888;28;20249;-75
2023/07/08 02:22:36;;;;;;;6.80;6.10;;;;;;;;;;5015772;28;20605;-76
2023/07/08 02:25:02;;;;;;;8.00;6.07;;;;;;;;;;5033178;28;20201;-76
2023/07/08 02:27:29;;;;;;;6.80;6.03;;;;;;;;;;5031729;28;20206;-76
2023/07/08 02:29:55;;;;;;;8.00;6.50;;;;;;;;;;5034503;28;20193;-76
2023/07/08 02:32:21;;;;;;;9.27;6.80;;;;;;;;;;5030349;28;20186;-76
2023/07/08 02:34:47;;;;;;;7.53;6.30;;;;;;;;;;5032123;28;20232;-76
2023/07/08 02:37:14;;;;;;;8.20;6.20;;;;;;;;;;5024115;28;20712;-75
2023/07/08 02:39:40;;;;;;;7.97;6.23;;;;;;;;;;5027071;28;20214;-76
2023/07/08 02:42:06;;;;;;;8.70;6.30;;;;;;;;;;5027493;28;20174;-76
2023/07/08 02:44:32;;;;;;;8.13;6.17;;;;;;;;;;5033371;28;20214;-76
2023/07/08 02:46:59;;;;;;;7.00;6.13;;;;;;;;;;5034421;28;20183;-76
2023/07/08 02:49:26;;;;;;;7.07;6.27;;;;;;;;;;5030892;28;20186;-75
2023/07/08 02:51:52;;;;;;;8.23;6.40;;;;;;;;;;5030898;28;20817;-76
2023/07/08 02:54:18;;;;;;;7.63;6.73;;;;;;;;;;5033467;28;20198;-76
2023/07/08 02:56:44;;;;;;;7.03;6.20;;;;;;;;;;5031250;28;20203;-77
2023/07/08 02:59:11;;;;;;;6.77;6.07;;;;;;;;;;5030963;28;20523;-76
2023/07/08 03:01:41;;;;;;;7.20;5.80;;;;;;;;;;5027778;28;20179;-76
2023/07/08 03:04:08;;;;;;;8.47;6.03;;;;;;;;;;5031452;28;20726;-76
2023/07/08 03:06:35;;;;;;;7.20;6.20;;;;;;;;;;5033389;28;20179;-75
2023/07/08 03:09:01;;;;;;;7.03;6.10;;;;;;;;;;5030240;28;20182;-76
2023/07/08 03:11:27;;;;;;;7.60;6.17;;;;;;;;;;5012392;28;20183;-76
2023/07/08 03:13:53;;;;;;;7.47;6.40;;;;;;;;;;5035661;28;20198;-76
2023/07/08 03:16:19;;;;;;;7.53;6.43;;;;;;;;;;5029715;28;20309;-75
2023/07/08 03:18:46;;;;;;;6.80;5.80;;;;;;;;;;5032850;28;20182;-76
2023/07/08 03:21:14;;;;;;;7.73;6.33;;;;;;;;;;5037120;28;20666;-76
2023/07/08 03:23:41;;;;;;;7.33;6.37;;;;;;;;;;5034830;28;20623;-76
2023/07/08 03:26:08;;;;;;;7.43;6.00;;;;;;;;;;5031582;28;20179;-76
2023/07/08 03:28:34;;;;;;;7.03;5.83;;;;;;;;;;5034674;28;20214;-76
2023/07/08 03:31:00;;;;;;;6.70;5.80;;;;;;;;;;5052920;28;20183;-76
2023/07/08 03:33:26;;;;;;;6.57;5.73;;;;;;;;;;5033203;28;20205;-76
2023/07/08 03:35:52;;;;;;;7.87;5.83;;;;;;;;;;5023620;28;20210;-76
2023/07/08 03:38:18;;;;;;;8.77;5.63;;;;;;;;;;5033822;28;20545;-76
2023/07/08 03:40:45;;;;;;;7.07;5.90;;;;;;;;;;5018573;28;20586;-75
2023/07/08 03:43:11;;;;;;;7.17;6.03;;;;;;;;;;5033088;28;20256;-75
2023/07/08 03:45:38;;;;;;;10.93;7.40;;;;;;;;;;5032430;28;20182;-76
2023/07/08 03:48:04;;;;;;;7.77;6.80;;;;;;;;;;5016644;28;20186;-77
2023/07/08 03:50:33;;;;;;;8.87;7.20;;;;;;;;;;5032400;28;20201;-76
2023/07/08 03:52:59;;;;;;;9.87;7.73;;;;;;;;;;5018213;28;20773;-75
2023/07/08 03:55:28;;;;;;;8.33;7.27;;;;;;;;;;5039758;28;20206;-77
2023/07/08 03:57:57;;;;;;;9.60;7.77;;;;;;;;;;5031974;28;20265;-76
2023/07/08 04:00:23;;;;;;;10.93;8.10;;;;;;;;;;5035131;28;20183;-76
2023/07/08 04:02:49;;;;;;;10.70;7.70;;;;;;;;;;5037067;28;20235;-76
2023/07/08 04:05:21;;;;;;;9.10;7.40;;;;;;;;;;5029512;28;20546;-76
2023/07/08 04:07:48;;;;;;;8.13;6.97;;;;;;;;;;5032808;28;20266;-76
2023/07/08 04:10:15;;;;;;;7.07;6.13;;;;;;;;;;5026755;28;20192;-75
2023/07/08 04:12:41;;;;;;;7.60;6.80;;;;;;;;;;5029058;28;20208;-76
2023/07/08 04:15:11;;;;;;;9.10;7.03;;;;;;;;;;5038775;28;20201;-76
2023/07/08 04:17:41;;;;;;;8.47;6.80;;;;;;;;;;5026568;28;20248;-76
2023/07/08 04:20:10;;;;;;;8.60;6.40;;;;;;;;;;5028172;28;20185;-76
2023/07/08 04:22:37;;;;;;;8.13;6.50;;;;;;;;;;5038705;28;20187;-75
2023/07/08 04:25:03;;;;;;;7.40;6.30;;;;;;;;;;5036314;28;20178;-76
2023/07/08 04:27:30;;;;;;;7.10;6.30;;;;;;;;;;5047298;28;20213;-76
2023/07/08 04:29:56;;;;;;;8.27;6.93;;;;;;;;;;5039597;28;20186;-75
2023/07/08 04:32:24;;;;;;;8.47;7.00;;;;;;;;;;5035714;28;20186;-75
2023/07/08 04:34:51;;;;;;;10.00;7.43;;;;;;;;;;5036051;28;20281;-75
2023/07/08 04:37:18;;;;;;;7.97;6.87;;;;;;;;;;5034477;28;20234;-74
2023/07/08 04:39:44;;;;;;;8.43;6.63;;;;;;;;;;5034790;28;20284;-75
2023/07/08 04:42:13;;;;;;;8.37;7.17;;;;;;;;;;5041068;28;20216;-75
2023/07/08 04:44:39;;;;;;;8.50;6.80;;;;;;;;;;5041169;28;20211;-75
2023/07/08 04:47:06;;;;;;;9.13;6.37;;;;;;;;;;5014081;28;20586;-75
2023/07/08 04:49:33;;;;;;;9.90;6.37;;;;;;;;;;5031386;28;20274;-75
2023/07/08 04:52:01;;;;;;;7.80;6.60;;;;;;;;;;5032590;28;20209;-75
2023/07/08 04:54:28;;;;;;;8.23;7.07;;;;;;;;;;5032162;28;20256;-75
2023/07/08 04:56:54;;;;;;;8.97;7.53;;;;;;;;;;5030931;28;20209;-75
2023/07/08 04:59:25;;;;;;;9.23;6.70;;;;;;;;;;5034761;28;20258;-75
2023/07/08 05:01:53;;;;;;;8.23;7.20;;;;;;;;;;5047120;28;20244;-75
2023/07/08 05:04:20;;;;;;;7.80;6.63;;;;;;;;;;5033094;28;20680;-75
2023/07/08 05:06:46;;;;;;;8.80;7.40;;;;;;;;;;5030583;28;20255;-74
2023/07/08 05:09:12;;;;;;;7.67;6.67;;;;;;;;;;5030358;28;20186;-74
2023/07/08 05:11:39;;;;;;;9.70;7.37;;;;;;;;;;5028461;28;20186;-75
2023/07/08 05:14:05;;;;;;;7.93;7.07;;;;;;;;;;5032795;28;20234;-75
2023/07/08 05:16:33;;;;;;;8.63;6.63;;;;;;;;;;5045531;28;20209;-75
2023/07/08 05:18:59;;;;;;;8.77;6.73;;;;;;;;;;5025229;28;20325;-75
2023/07/08 05:21:27;;;;;;;7.77;6.97;;;;;;;;;;5034892;28;20647;-75
2023/07/08 05:23:53;;;;;;;7.90;6.57;;;;;;;;;;5044420;28;20200;-76
2023/07/08 05:26:19;;;;;;;7.93;6.57;;;;;;;;;;5035081;28;20292;-75
2023/07/08 05:28:46;;;;;;;7.37;6.10;;;;;;;;;;5050930;28;20179;-75
2023/07/08 05:31:12;;;;;;;8.03;6.43;;;;;;;;;;5050392;28;20182;-74
2023/07/08 05:33:38;;;;;;;8.43;6.70;;;;;;;;;;5034744;28;20710;-75
2023/07/08 05:36:04;;;;;;;8.70;6.90;;;;;;;;;;5030977;28;20203;-75
2023/07/08 05:38:30;;;;;;;8.07;6.80;;;;;;;;;;5034807;28;20209;-75
2023/07/08 05:40:58;;;;;;;8.43;6.40;;;;;;;;;;5033079;28;20234;-75
2023/07/08 05:43:24;;;;;;;7.17;6.47;;;;;;;;;;5034466;28;20223;-75
2023/07/08 05:45:50;;;;;;;8.00;7.20;;;;;;;;;;5037195;28;20182;-75
2023/07/08 05:48:17;;;;;;;8.23;7.40;;;;;;;;;;5029962;28;20557;-75
2023/07/08 05:50:43;;;;;;;11.03;7.37;;;;;;;;;;5037777;28;20199;-75
2023/07/08 05:53:11;;;;;;;11.37;8.03;;;;;;;;;;5039521;28;20200;-75
2023/07/08 05:55:37;;;;;;;9.00;7.60;;;;;;;;;;5033024;28;20626;-75
2023/07/08 05:58:03;;;;;;;10.30;7.67;;;;;;;;;;5034436;28;20186;-75
2023/07/08 06:00:29;;;;;;;9.97;8.23;;;;;;;;;;5037508;28;20185;-75
2023/07/08 06:02:55;;;;;;;9.77;8.50;;;;;;;;;;5039265;28;20220;-75
2023/07/08 06:05:22;;;;;;;9.50;8.50;;;;;;;;;;5040790;28;20656;-75
2023/07/08 06:07:48;;;;;;;12.73;9.53;;;;;;;;;;5051109;28;20172;-75
2023/07/08 06:10:14;;;;;;;11.00;9.33;;;;;;;;;;5032696;28;20657;-75
2023/07/08 06:12:40;;;;;;;11.60;9.13;;;;;;;;;;5031932;28;20213;-74
2023/07/08 06:15:07;;;;;;;10.47;8.53;;;;;;;;;;5034366;28;20710;-74
2023/07/08 06:17:33;;;;;;;12.43;8.50;;;;;;;;;;5037918;28;20229;-75
2023/07/08 06:19:59;;;;;;;9.10;8.20;;;;;;;;;;5052128;28;20185;-75
2023/07/08 06:22:25;;;;;;;9.70;8.47;;;;;;;;;;5036324;28;20202;-73
2023/07/08 06:24:51;;;;;;;9.33;8.20;;;;;;;;;;5038337;28;20251;-75
2023/07/08 06:27:18;;;;;;;9.90;8.30;;;;;;;;;;5038388;28;20186;-74
2023/07/08 06:29:45;;;;;;;10.00;8.40;;;;;;;;;;5036605;28;20555;-75
2023/07/08 06:32:11;;;;;;;10.90;8.77;;;;;;;;;;5027090;28;20749;-74
2023/07/08 06:34:37;;;;;;;12.03;8.10;;;;;;;;;;5037406;28;20202;-75
2023/07/08 06:37:03;;;;;;;13.70;9.07;;;;;;;;;;5046673;28;20309;-74
2023/07/08 06:39:29;;;;;;;11.83;8.53;;;;;;;;;;5025561;28;20599;-75
2023/07/08 06:41:55;;;;;;;9.57;8.03;;;;;;;;;;5030973;28;20265;-76
2023/07/08 06:44:27;;;;;;;12.70;8.63;;;;;;;;;;5026303;28;20217;-75
2023/07/08 06:46:53;;;;;;;13.43;8.57;;;;;;;;;;5033002;28;20231;-70
2023/07/08 06:49:19;;;;;;;9.90;8.47;;;;;;;;;;5033699;28;20174;-71
2023/07/08 06:51:45;;;;;;;12.20;8.60;;;;;;;;;;5047950;28;20213;-72
2023/07/08 06:54:12;;;;;;;11.80;8.90;;;;;;;;;;5031875;28;20207;-71
2023/07/08 06:56:39;;;;;;;13.50;8.70;;;;;;;;;;5029145;28;20221;-72
2023/07/08 06:59:05;;;;;;;13.07;10.13;;;;;;;;;;5033120;28;20215;-72
2023/07/08 07:01:31;;;;;;;12.73;8.80;;;;;;;;;;5033478;28;20182;-72
2023/07/08 07:03:59;;;;;;;10.67;8.67;;;;;;;;;;5031559;28;20225;-72
2023/07/08 07:06:25;;;;;;;10.93;8.67;;;;;;;;;;5034741;28;21193;-72
2023/07/08 07:08:51;;;;;;;11.23;9.00;;;;;;;;;;5029402;28;20179;-72
2023/07/08 07:11:19;;;;;;;13.27;9.10;;;;;;;;;;5031096;28;20186;-72
2023/07/08 07:13:45;;;;;;;10.23;9.03;;;;;;;;;;5026057;28;20275;-72
2023/07/08 07:16:12;;;;;;;10.20;8.97;;;;;;;;;;5030538;28;20207;-73
2023/07/08 07:18:38;;;;;;;10.40;8.40;;;;;;;;;;5035831;28;20167;-71
2023/07/08 07:21:04;;;;;;;10.60;8.77;;;;;;;;;;5045569;28;20206;-72
2023/07/08 07:23:30;;;;;;;11.93;8.87;;;;;;;;;;5027415;28;20285;-72
2023/07/08 07:25:57;;;;;;;11.13;8.80;;;;;;;;;;5010793;28;20194;-72
2023/07/08 07:28:23;;;;;;;10.43;9.00;;;;;;;;;;5027953;28;20217;-73
2023/07/08 07:30:56;;;;;;;9.00;8.10;;;;;;;;;;5031867;28;20912;-72
2023/07/08 07:33:22;;;;;;;12.10;8.37;;;;;;;;;;5032489;28;20199;-72
2023/07/08 07:35:48;;;;;;;10.70;8.97;;;;;;;;;;5031279;28;20264;-72
2023/07/08 07:38:16;;;;;;;10.10;8.27;;;;;;;;;;5046661;28;20173;-72
2023/07/08 07:40:42;;;;;;;12.53;8.30;;;;;;;;;;5038493;28;20229;-72
2023/07/08 07:43:08;;;;;;;10.80;7.83;;;;;;;;;;5033701;28;20236;-72
2023/07/08 07:45:34;;;;;;;9.77;7.13;;;;;;;;;;5034185;28;20267;-72
2023/07/08 07:48:01;;;;;;;9.17;7.30;;;;;;;;;;5032556;28;20180;-72
2023/07/08 07:50:27;;;;;;;10.07;6.23;;;;;;;;;;5040062;28;20246;-72
2023/07/08 07:52:53;;;;;;;8.57;6.40;;;;;;;;;;5029656;28;20201;-72
2023/07/08 07:55:20;;;;;;;9.07;6.30;;;;;;;;;;5031713;28;20174;-71
2023/07/08 07:57:46;;;;;;;7.37;6.20;;;;;;;;;;5029102;28;20205;-71
2023/07/08 08:00:17;;;;;;;6.67;5.90;;;;;;;;;;5031336;28;20233;-71
2023/07/08 08:02:44;;;;;;;7.83;5.77;;;;;;;;;;5030887;28;20186;-70
2023/07/08 08:05:10;;;;;;;7.10;5.63;;;;;;;;;;5028817;28;20208;-72
2023/07/08 08:07:36;;;;;;;6.43;5.10;;;;;;;;;;5029974;28;20648;-72
2023/07/08 08:10:03;;;;;;;6.77;5.47;;;;;;;;;;5030283;28;20227;-72
2023/07/08 08:12:29;;;;;;;7.40;5.03;;;;;;;;;;5018367;28;20654;-70
2023/07/08 08:14:55;;;;;;;7.43;5.33;;;;;;;;;;5025968;28;20680;-70
2023/07/08 08:17:22;;;;;;;6.17;4.80;;;;;;;;;;5025536;28;20300;-70
2023/07/08 08:19:48;;;;;;;6.47;4.83;;;;;;;;;;5026732;28;20178;-71
2023/07/08 08:22:15;;;;;;;8.50;5.03;;;;;;;;;;5026700;28;20336;-72
2023/07/08 08:24:41;;;;;;;6.63;5.17;;;;;;;;;;5026032;28;20199;-73
2023/07/08 08:27:07;;;;;;;7.67;5.07;;;;;;;;;;5028808;28;20209;-72
2023/07/08 08:29:33;;;;;;;6.67;4.67;;;;;;;;;;5029139;28;20197;-72
2023/07/08 08:31:59;;;;;;;7.10;5.50;;;;;;;;;;5029848;28;20200;-71
2023/07/08 08:34:25;;;;;;;9.07;5.10;;;;;;;;;;5026122;28;20581;-70
2023/07/08 08:36:55;;;;;;;6.60;5.30;;;;;;;;;;5025461;28;20233;-72
2023/07/08 08:39:22;;;;;;;10.37;4.97;;;;;;;;;;5028729;28;20210;-74
2023/07/08 08:41:53;;;;;;;9.97;5.30;;;;;;;;;;5041923;28;20186;-71
2023/07/08 08:44:22;;;;;;;8.77;5.10;;;;;;;;;;5028720;28;20308;-71
2023/07/08 08:46:52;;;;;;;7.03;4.97;;;;;;;;;;5030917;28;20264;-71
2023/07/08 08:49:22;;;;;;;6.67;5.30;;;;;;;;;;5029656;28;20316;-70
2023/07/08 08:51:48;;;;;;;7.03;5.13;;;;;;;;;;5027817;28;20216;-71
2023/07/08 08:54:15;;;;;;;7.20;4.90;;;;;;;;;;5031712;28;20205;-71
2023/07/08 08:56:52;;;;;;;5.77;4.80;;;;;;;;;;5034412;28;20613;-70
2023/07/08 08:59:28;;;;;;;6.97;5.30;;;;;;;;;;5034338;28;20715;-70
2023/07/08 09:01:55;;;;;;;7.20;4.83;;;;;;;;;;5036876;28;20286;-73
2023/07/08 09:04:24;;;;;;;6.67;5.40;;;;;;;;;;5037432;28;20228;-75
2023/07/08 09:06:52;;;;;;;7.83;4.90;;;;;;;;;;5030629;28;20186;-71
2023/07/08 09:09:37;;;;;;;10.47;4.70;;;;;;;;;;5037983;28;20195;-72
2023/07/08 09:12:05;;;;;;;6.03;4.50;;;;;;;;;;5027083;28;20178;-72
2023/07/08 09:14:33;;;;;;;7.00;4.87;;;;;;;;;;5031333;28;20210;-71
2023/07/08 09:17:18;;;;;;;7.70;4.83;;;;;;;;;;5029963;28;20301;-71
2023/07/08 09:19:47;;;;;;;6.17;4.20;;;;;;;;;;5016542;28;20187;-71
2023/07/08 09:22:22;;;;;;;6.37;4.43;;;;;;;;;;5033068;28;20555;-71
2023/07/08 09:24:48;;;;;;;7.77;4.50;;;;;;;;;;5031763;28;20210;-72
2023/07/08 09:27:14;;;;;;;5.23;4.70;;;;;;;;;;5033844;28;20182;-71
2023/07/08 09:29:40;;;;;;;6.20;4.87;;;;;;;;;;5014453;28;20635;-71
2023/07/08 09:32:14;;;;;;;6.40;4.90;;;;;;;;;;5028333;28;20229;-72
2023/07/08 09:34:45;;;;;;;6.77;4.60;;;;;;;;;;5029251;28;20257;-71
2023/07/08 09:37:38;;;;;;;5.63;4.27;;;;;;;;;;5032610;28;20237;-71
2023/07/08 09:40:12;;;;;;;6.67;4.60;;;;;;;;;;5028712;28;20253;-71
2023/07/08 09:42:38;;;;;;;6.77;4.77;;;;;;;;;;5022169;28;20205;-71
2023/07/08 09:45:11;;;;;;;6.87;4.80;;;;;;;;;;5032029;28;20186;-71
2023/07/08 09:47:40;;;;;;;8.33;4.80;;;;;;;;;;5032458;28;20201;-72
2023/07/08 09:50:25;;;;;;;7.80;5.13;;;;;;;;;;5016103;28;20183;-70
2023/07/08 09:53:00;;;;;;;6.07;4.77;;;;;;;;;;5031825;28;20182;-72
2023/07/08 09:55:28;;;;;;;5.70;4.63;;;;;;;;;;5032724;28;20190;-71
2023/07/08 09:57:56;;;;;;;7.17;4.90;;;;;;;;;;5031166;28;20637;-70
2023/07/08 10:00:39;;;;;;;6.80;4.90;;;;;;;;;;5033563;28;20190;-71
2023/07/08 10:03:14;;;;;;;7.27;4.67;;;;;;;;;;5024096;28;20669;-70
2023/07/08 10:05:42;;;;;;;6.73;4.90;;;;;;;;;;5033503;28;20192;-71
2023/07/08 10:08:14;;;;;;;8.37;4.80;;;;;;;;;;5038043;28;20727;-72
2023/07/08 10:10:41;;;;;;;7.03;4.93;;;;;;;;;;5037266;28;20179;-71
2023/07/08 10:13:20;;;;;;;5.87;4.87;;;;;;;;;;5031599;28;20212;-72
2023/07/08 10:15:48;;;;;;;6.87;5.20;;;;;;;;;;5028188;28;20203;-70
2023/07/08 10:18:15;;;;;;;6.87;5.20;;;;;;;;;;5032127;28;20190;-71
2023/07/08 10:20:55;;;;;;;6.30;5.30;;;;;;;;;;5032214;28;20257;-70
2023/07/08 10:23:39;;;;;;;6.93;5.20;;;;;;;;;;5032873;28;20218;-70
2023/07/08 10:26:10;;;;;;;7.83;5.00;;;;;;;;;;5031874;28;20217;-72
2023/07/08 10:28:37;;;;;;;7.07;5.27;;;;;;;;;;5034704;28;20594;-72
2023/07/08 10:31:27;;;;;;;10.17;5.03;;;;;;;;;;5026191;28;20634;-72
2023/07/08 10:34:23;;;;;;;7.47;5.20;;;;;;;;;;5035408;28;20201;-72
2023/07/08 10:36:59;;;;;;;8.17;5.17;;;;;;;;;;5029145;28;20579;-75
2023/07/08 10:39:41;;;;;;;7.23;5.40;;;;;;;;;;5032209;28;20190;-74
2023/07/08 10:42:07;;;;;;;6.90;5.33;;;;;;;;;;5027314;28;20792;-77
2023/07/08 10:44:33;;;;;;;7.93;5.50;;;;;;;;;;5029876;28;20217;-74
2023/07/08 10:47:20;;;;;;;7.67;5.10;;;;;;;;;;5026131;28;20187;-73
2023/07/08 10:50:00;;;;;;;7.37;4.67;;;;;;;;;;5029234;28;20187;-73
2023/07/08 10:52:42;;;;;;;7.50;4.77;;;;;;;;;;5030501;28;20187;-74
2023/07/08 10:55:19;;;;;;;6.80;4.63;;;;;;;;;;5024666;28;20268;-73
2023/07/08 10:57:53;;;;;;;6.13;4.73;;;;;;;;;;5027155;28;20562;-74
2023/07/08 11:00:31;;;;;;;4.90;4.40;;;;;;;;;;5028227;28;20262;-74
2023/07/08 11:02:57;;;;;;;8.47;4.40;;;;;;;;;;5029752;28;20632;-74
2023/07/08 11:05:45;;;;;;;6.80;4.70;;;;;;;;;;5024375;28;20178;-74
2023/07/08 11:08:14;;;;;;;8.10;4.47;;;;;;;;;;5029843;28;20182;-74
2023/07/08 11:10:48;;;;;;;6.93;4.57;;;;;;;;;;5026283;28;20183;-73
2023/07/08 11:13:17;;;;;;;10.27;4.50;;;;;;;;;;5028688;28;20207;-73
2023/07/08 11:15:47;;;;;;;7.70;4.80;;;;;;;;;;5010721;28;20197;-74
2023/07/08 11:18:17;;;;;;;6.47;4.37;;;;;;;;;;5017598;28;20188;-73
2023/07/08 11:20:51;;;;;;;7.20;4.73;;;;;;;;;;5030028;28;20593;-74
2023/07/08 11:23:21;;;;;;;6.80;4.33;;;;;;;;;;5029837;28;20195;-74
2023/07/08 11:25:49;;;;;;;6.10;4.43;;;;;;;;;;5030157;28;20189;-72
2023/07/08 11:28:17;;;;;;;7.73;4.50;;;;;;;;;;5009658;28;20217;-72
2023/07/08 11:30:45;;;;;;;6.97;4.67;;;;;;;;;;5026704;28;20612;-78
2023/07/08 11:33:12;;;;;;;5.73;4.47;;;;;;;;;;5028081;28;20209;-74
2023/07/08 11:35:42;;;;;;;7.27;4.60;;;;;;;;;;5027803;28;20227;-71
2023/07/08 11:38:15;;;;;;;6.23;4.40;;;;;;;;;;5024043;28;20187;-74
2023/07/08 11:40:50;;;;;;;6.23;4.43;;;;;;;;;;5023692;28;20191;-73
2023/07/08 11:43:17;;;;;;;5.83;4.30;;;;;;;;;;5017853;28;20238;-72
2023/07/08 11:45:44;;;;;;;5.60;4.23;;;;;;;;;;5023006;28;20258;-77
2023/07/08 11:48:15;;;;;;;7.53;4.53;;;;;;;;;;5021313;28;20187;-73
2023/07/08 11:50:43;;;;;;;5.90;4.60;;;;;;;;;;5024898;28;20547;-75
2023/07/08 11:53:29;;;;;;;7.80;4.43;;;;;;;;;;5020508;28;20270;-75
2023/07/08 11:56:04;;;;;;;6.63;4.50;;;;;;;;;;5022461;28;20227;-75
2023/07/08 11:58:50;;;;;;;6.17;4.37;;;;;;;;;;5021551;28;20185;-75
2023/07/08 12:01:24;;;;;;;6.20;4.40;;;;;;;;;;5021355;28;20186;-75
2023/07/08 12:03:52;;;;;;;12.83;4.80;;;;;;;;;;5034540;28;20214;-75
2023/07/08 12:06:27;;;;;;;4.67;4.03;;;;;;;;;;5006517;28;20190;-75
2023/07/08 12:08:54;;;;;;;6.50;4.47;;;;;;;;;;5035779;28;20739;-75
2023/07/08 12:11:24;;;;;;;6.30;4.40;;;;;;;;;;5021479;28;20215;-75
2023/07/08 12:13:50;;;;;;;8.37;4.20;;;;;;;;;;5024124;28;20250;-75
2023/07/08 12:16:17;;;;;;;5.43;3.83;;;;;;;;;;5025185;28;20212;-74
2023/07/08 12:18:45;;;;;;;4.73;3.93;;;;;;;;;;5025103;28;20186;-75
2023/07/08 12:21:13;;;;;;;6.40;4.40;;;;;;;;;;5014586;28;20210;-75
2023/07/08 12:23:44;;;;;;;5.73;4.27;;;;;;;;;;5020016;28;20208;-77
2023/07/08 12:26:10;;;;;;;6.17;4.47;;;;;;;;;;5022037;28;20203;-76
2023/07/08 12:28:40;;;;;;;5.53;4.03;;;;;;;;;;5032415;28;20305;-76
2023/07/08 12:31:17;;;;;;;4.47;3.93;;;;;;;;;;5030192;28;20240;-76
2023/07/08 12:33:44;;;;;;;9.87;4.17;;;;;;;;;;5020189;28;20569;-76
2023/07/08 12:36:13;;;;;;;5.27;3.93;;;;;;;;;;5031957;28;20283;-76
2023/07/08 12:38:41;;;;;;;5.87;4.17;;;;;;;;;;5026143;28;20286;-76
2023/07/08 12:41:11;;;;;;;5.87;3.80;;;;;;;;;;5029228;28;20179;-76
2023/07/08 12:43:37;;;;;;;8.03;3.97;;;;;;;;;;5025948;28;20319;-76
2023/07/08 12:46:04;;;;;;;7.00;4.10;;;;;;;;;;5029678;28;20680;-76
2023/07/08 12:48:39;;;;;;;5.30;4.10;;;;;;;;;;5033263;28;20664;-76
2023/07/08 12:51:07;;;;;;;5.03;3.73;;;;;;;;;;5011633;28;20190;-76
2023/07/08 12:53:33;;;;;;;5.93;4.00;;;;;;;;;;5032172;28;20279;-76
2023/07/08 12:56:00;;;;;;;7.17;3.90;;;;;;;;;;5031240;28;20239;-76
2023/07/08 12:58:28;;;;;;;5.38;3.85;;;;;;;;;;5032871;28;20189;-76
2023/07/08 13:00:58;;;;;;;4.90;3.80;;;;;;;;;;5027585;28;20205;-76
2023/07/08 13:03:27;;;;;;;8.35;4.00;;;;;;;;;;5030105;28;20213;-76
2023/07/08 13:05:53;;;;;;;7.45;3.88;;;;;;;;;;5020475;28;20190;-79
2023/07/08 13:08:22;;;;;;;4.18;3.50;;;;;;;;;;5021890;28;20194;-77
2023/07/08 13:10:49;;;;;;;4.82;4.13;;;;;;;;;;5028082;28;20256;-78
2023/07/08 13:13:18;;;;;;;6.97;3.85;;;;;;;;;;5035961;28;20842;-78
2023/07/08 13:15:44;;;;;;;4.25;3.85;;;;;;;;;;5033559;28;20195;-79
2023/07/08 13:18:18;;;;;;;5.40;3.67;;;;;;;;;;5026959;28;20272;-78
2023/07/08 13:20:47;;;;;;;6.35;4.53;;;;;;;;;;5029013;28;20175;-81
2023/07/08 13:23:14;;;;;;;7.93;4.13;;;;;;;;;;5030675;28;20210;-76
2023/07/08 13:25:40;;;;;;;6.03;4.20;;;;;;;;;;5029944;28;20182;-75
2023/07/08 13:28:17;;;;;;;4.78;4.28;;;;;;;;;;5028298;28;20183;-82
2023/07/08 13:30:52;;;;;;;4.68;4.00;;;;;;;;;;5025663;28;20186;-79
2023/07/08 13:33:18;;;;;;;7.40;4.38;;;;;;;;;;5026132;28;20205;-78
2023/07/08 13:35:46;;;;;;;7.05;4.45;;;;;;;;;;5030260;28;21421;-78
2023/07/08 13:38:19;;;;;;;6.60;4.65;;;;;;;;;;5029004;28;20196;-78
2023/07/08 13:40:47;;;;;;;5.63;4.13;;;;;;;;;;5032816;28;20185;-78
2023/07/08 13:43:13;;;;;;;6.35;4.28;;;;;;;;;;5031335;28;20283;-78
2023/07/08 13:45:47;;;;;;;5.97;4.28;;;;;;;;;;5036869;28;20185;-78
2023/07/08 13:48:19;;;;;;;4.63;4.22;;;;;;;;;;5038375;28;20210;-78
2023/07/08 13:50:48;;;;;;;5.53;4.93;;;;;;;;;;5035619;28;20197;-78
2023/07/08 13:53:22;;;;;;;5.22;4.53;;;;;;;;;;5039493;28;20209;-78
2023/07/08 13:55:49;;;;;;;4.53;4.13;;;;;;;;;;5035131;28;20221;-78
2023/07/08 13:58:17;;;;;;;5.35;4.25;;;;;;;;;;5036668;28;20499;-78
2023/07/08 14:00:43;;;;;;;5.50;4.25;;;;;;;;;;5038905;28;20193;-78
2023/07/08 14:03:11;;;;;;;5.60;4.30;;;;;;;;;;5038761;28;20214;-78
2023/07/08 14:05:38;;;;;;;6.20;4.60;;;;;;;;;;5029859;28;20622;-78
2023/07/08 14:08:22;;;;;;;5.88;4.10;;;;;;;;;;5040245;28;20210;-78
2023/07/08 14:10:49;;;;;;;7.28;4.28;;;;;;;;;;5044671;28;20190;-78
2023/07/08 14:13:15;;;;;;;5.55;4.20;;;;;;;;;;5040829;28;20203;-78
2023/07/08 14:15:41;;;;;;;4.80;4.30;;;;;;;;;;5038650;28;20189;-78
2023/07/08 14:18:10;;;;;;;5.93;4.07;;;;;;;;;;5039667;28;20232;-78
2023/07/08 14:20:37;;;;;;;5.40;4.40;;;;;;;;;;5038047;28;20187;-78
2023/07/08 14:23:03;;;;;;;5.18;4.05;;;;;;;;;;5039180;28;21076;-78
2023/07/08 14:25:29;;;;;;;4.40;3.90;;;;;;;;;;5036962;28;20175;-78
2023/07/08 14:27:56;;;;;;;5.13;3.90;;;;;;;;;;5031846;28;20183;-78
2023/07/08 14:30:22;;;;;;;5.05;4.10;;;;;;;;;;5031746;28;20198;-78
2023/07/08 14:32:48;;;;;;;6.03;3.80;;;;;;;;;;5027890;28;20194;-78
2023/07/08 14:35:22;;;;;;;6.68;4.20;;;;;;;;;;5025407;28;20578;-77
2023/07/08 14:37:48;;;;;;;5.50;4.00;;;;;;;;;;5021581;28;20198;-77
2023/07/08 14:40:32;;;;;;;5.65;4.00;;;;;;;;;;5027319;28;20238;-77
2023/07/08 14:42:59;;;;;;;5.30;4.15;;;;;;;;;;5024597;28;20207;-78
2023/07/08 14:45:26;;;;;;;5.80;4.18;;;;;;;;;;5021335;28;20194;-77
2023/07/08 14:47:52;;;;;;;7.55;3.63;;;;;;;;;;5022771;28;20194;-77
2023/07/08 14:50:18;;;;;;;4.93;3.88;;;;;;;;;;5025582;28;20193;-77